Sapeacu, Brazil
Current Conditions -  °F | °C
As of 1:00 PM on Sunday 21 Dec 2014 (Local Time) from SBSV Reporting Station
Scattered Clouds Scattered Clouds  
Wind Chill: 29°   Ceiling: Unl
Heat Index: 33°   Visibility: 6mi
Dew Point: 23°   Wind: 14mph
Humidity: 70%   Direction: 100°E
Pressure: 29.94"   Gusts: NA
Location:  12.73°S, 39.18°W
Report Text: SBSV 211600Z 10012KT 9999 FEW017 SCT070 29/23 Q1014
Loading
Personal Weather Stations






























Interactive Weather Map New forecast layout! Learn more

10-Day Weather Forecast

Advertisements
Track Severe Weather on mobile